This is the latest recevied weather packets stored in our database for station/object KK7MLS-13. If no packets are shown the sender has not sent any weather packets the latest 10 day(s).
| Time | Temp. | Humidity | Pressure | Rain* | Wind** | Luminosity | Snow |
|---|---|---|---|---|---|---|---|
| 1788219372 | 32.78° C | 29% | 1007.8 hPa | 0 mm | - | 347 W/m² | - |
| 1788219068 | 32.22° C | 30% | 1007.9 hPa | 0 mm | - | 333 W/m² | - |
| 1788218763 | 32.78° C | 28% | 1007.8 hPa | 0 mm | - | 279 W/m² | - |
| 1788218459 | 32.78° C | 28% | 1007.8 hPa | 0 mm | - | 262 W/m² | - |
| 1788218155 | 32.78° C | 28% | 1007.9 hPa | 0 mm | - | 348 W/m² | - |
| 1788217850 | 32.78° C | 29% | 1007.8 hPa | 0 mm | - | 412 W/m² | - |
| 1788217545 | 32.78° C | 29% | 1007.9 hPa | 0 mm | - | 425 W/m² | - |
| 1788217240 | 32.78° C | 29% | 1008 hPa | 0 mm | - | 436 W/m² | - |
| 1788216936 | 32.22° C | 30% | 1008 hPa | 0 mm | - | 448 W/m² | - |
| 1788216636 | 31.67° C | 32% | 1008.1 hPa | 0 mm | - | 462 W/m² | - |
| 1788216331 | 32.22° C | 31% | 1008.3 hPa | 0 mm | - | 470 W/m² | - |
| 1788216026 | 32.78° C | 30% | 1008.2 hPa | 0 mm | - | 479 W/m² | - |
| 1788215721 | 31.67° C | 33% | 1008.2 hPa | 0 mm | - | 487 W/m² | - |
| 1788215418 | 32.22° C | 30% | 1008.1 hPa | 0 mm | - | 502 W/m² | - |
| 1788215114 | 32.78° C | 34% | 1008.3 hPa | 0 mm | - | 509 W/m² | - |
| 1788214813 | 33.33° C | 29% | 1008.3 hPa | 0 mm | - | 512 W/m² | - |
| 1788214509 | 32.78° C | 32% | 1008.2 hPa | 0 mm | - | 523 W/m² | - |
| 1788214204 | 31.67° C | 32% | 1008.4 hPa | 0 mm | - | 542 W/m² | - |
| 1788213899 | 31.67° C | 33% | 1008.3 hPa | 0 mm | - | 554 W/m² | - |
| 1788213595 | 31.11° C | 33% | 1008.4 hPa | 0 mm | - | 565 W/m² | - |
| 1788213290 | 30.56° C | 34% | 1008.4 hPa | 0 mm | - | 576 W/m² | - |
| 1788212986 | 31.11° C | 33% | 1008.5 hPa | 0 mm | - | 573 W/m² | - |
| 1788212683 | 30.56° C | 34% | 1008.3 hPa | 0 mm | - | 586 W/m² | - |
| 1788212379 | 31.11° C | 33% | 1008.7 hPa | 0 mm | - | 592 W/m² | - |
| 1788212076 | 30.56° C | 38% | 1008.7 hPa | 0 mm | - | 606 W/m² | - |
* Rain latest hour (hover to see other rain measurements)
** Current wind speed in m/s (hover to see current wind gust speed)